createdAt,value
2022-11-27T00:00:00.822Z,17
2022-11-27T00:01:00.798Z,18
2022-11-27T00:02:00.794Z,17
2022-11-27T00:04:00.924Z,16
2022-11-27T00:05:00.823Z,15
2022-11-27T00:06:00.821Z,12
2022-11-27T00:08:00.819Z,14
2022-11-27T00:09:00.793Z,15
2022-11-27T00:10:00.823Z,16
2022-11-27T00:11:00.796Z,17
2022-11-27T00:15:00.888Z,18
2022-11-27T00:16:00.875Z,17
2022-11-27T00:17:00.797Z,18
2022-11-27T00:18:00.798Z,17
2022-11-27T00:19:00.799Z,16
2022-11-27T00:23:00.888Z,17
2022-11-27T00:24:00.799Z,18
2022-11-27T00:25:00.830Z,19
2022-11-27T00:27:00.798Z,18
2022-11-27T00:28:00.798Z,16
2022-11-27T00:29:00.799Z,15
2022-11-27T00:30:00.835Z,13
2022-11-27T00:31:00.837Z,14
2022-11-27T00:32:00.801Z,15
2022-11-27T00:33:00.798Z,16
2022-11-27T00:34:00.801Z,17
2022-11-27T00:35:00.845Z,18
2022-11-27T00:36:00.800Z,17
2022-11-27T00:37:00.803Z,16
2022-11-27T00:38:00.803Z,15
2022-11-27T00:39:00.828Z,13
2022-11-27T00:41:00.806Z,14
2022-11-27T00:42:00.800Z,13
2022-11-27T00:44:00.867Z,14
2022-11-27T00:45:00.804Z,14
2022-11-27T00:47:00.874Z,16
2022-11-27T00:48:00.810Z,15
2022-11-27T00:49:00.805Z,16
2022-11-27T00:50:00.804Z,17
2022-11-27T00:51:00.807Z,16
2022-11-27T00:52:00.803Z,15
2022-11-27T00:53:00.804Z,14
2022-11-27T00:54:00.819Z,13
2022-11-27T00:55:00.828Z,12
2022-11-27T00:56:00.805Z,14
2022-11-27T00:57:00.805Z,13
2022-11-27T00:58:00.809Z,15
2022-11-27T00:59:00.802Z,17
2022-11-27T01:00:00.808Z,17
2022-11-27T01:01:00.816Z,16
2022-11-27T01:04:00.934Z,14
2022-11-27T01:05:00.808Z,12
2022-11-27T01:06:00.808Z,11
2022-11-27T01:07:00.807Z,13
2022-11-27T01:08:00.811Z,15
2022-11-27T01:10:00.806Z,17
2022-11-27T01:11:00.838Z,19
2022-11-27T01:12:00.807Z,18
2022-11-27T01:13:00.808Z,19
2022-11-27T01:14:00.811Z,21
2022-11-27T01:15:00.811Z,21
2022-11-27T01:16:00.871Z,18
2022-11-27T01:17:00.809Z,17
2022-11-27T01:18:00.811Z,16
2022-11-27T01:20:00.811Z,17
2022-11-27T01:21:00.828Z,19
2022-11-27T01:22:00.814Z,20
2022-11-27T01:23:00.814Z,19
2022-11-27T01:24:00.814Z,17
2022-11-27T01:26:00.815Z,16
2022-11-27T01:27:00.840Z,17
2022-11-27T01:28:00.814Z,18
2022-11-27T01:29:00.815Z,17
2022-11-27T01:30:00.816Z,19
2022-11-27T01:34:00.880Z,20
2022-11-27T01:35:00.816Z,17
2022-11-27T01:36:00.845Z,16
2022-11-27T01:37:01.911Z,18
2022-11-27T01:38:00.815Z,19
2022-11-27T01:39:00.815Z,20
2022-11-27T01:40:00.817Z,21
2022-11-27T01:42:00.843Z,19
2022-11-27T01:43:00.841Z,18
2022-11-27T01:44:00.824Z,15
2022-11-27T01:45:00.818Z,15
2022-11-27T01:46:00.926Z,16
2022-11-27T01:48:00.819Z,17
2022-11-27T01:49:00.815Z,19
2022-11-27T01:50:00.820Z,18
2022-11-27T01:51:00.857Z,16
2022-11-27T01:53:00.883Z,15
2022-11-27T01:55:00.820Z,17
2022-11-27T01:56:00.848Z,19
2022-11-27T01:58:00.820Z,17
2022-11-27T01:59:00.847Z,16
2022-11-27T02:00:00.816Z,16
2022-11-27T02:01:00.861Z,13
2022-11-27T02:03:00.906Z,15
2022-11-27T02:04:00.824Z,16
2022-11-27T02:06:00.844Z,17
2022-11-27T02:07:00.822Z,18
2022-11-27T02:08:00.877Z,16
2022-11-27T02:09:00.817Z,14
2022-11-27T02:12:00.851Z,13
2022-11-27T02:14:00.824Z,14
2022-11-27T02:15:06.829Z,14
2022-11-27T02:17:00.851Z,16
2022-11-27T02:18:00.835Z,15
2022-11-27T02:19:00.825Z,16
2022-11-27T02:20:00.829Z,17
2022-11-27T02:23:00.918Z,19
2022-11-27T02:25:00.826Z,18
2022-11-27T02:26:00.825Z,20
2022-11-27T02:27:00.852Z,18
2022-11-27T02:28:00.831Z,17
2022-11-27T02:29:00.829Z,15
2022-11-27T02:30:00.835Z,15
2022-11-27T02:31:00.848Z,13
2022-11-27T02:33:00.992Z,14
2022-11-27T02:34:00.828Z,15
2022-11-27T02:36:00.833Z,14
2022-11-27T02:37:00.855Z,15
2022-11-27T02:40:00.827Z,14
2022-11-27T02:41:01.853Z,15
2022-11-27T02:42:01.479Z,16
2022-11-27T02:45:00.955Z,17
2022-11-27T02:46:00.914Z,18
2022-11-27T02:47:00.866Z,17
2022-11-27T02:48:00.827Z,19
2022-11-27T02:49:00.828Z,22
2022-11-27T02:50:00.829Z,21
2022-11-27T02:51:00.837Z,19
2022-11-27T02:54:00.919Z,17
2022-11-27T02:58:01.063Z,15
2022-11-27T03:00:00.830Z,14
2022-11-27T03:01:00.830Z,15
2022-11-27T03:03:01.052Z,16
2022-11-27T03:04:00.830Z,17
2022-11-27T03:07:00.832Z,16
2022-11-27T03:08:00.944Z,17
2022-11-27T03:09:00.834Z,16
2022-11-27T03:10:00.846Z,17
2022-11-27T03:12:00.833Z,16
2022-11-27T03:13:00.878Z,15
2022-11-27T03:14:00.952Z,14
2022-11-27T03:15:00.833Z,13
2022-11-27T03:17:00.831Z,14
2022-11-27T03:18:00.872Z,15
2022-11-27T03:19:00.834Z,16
2022-11-27T03:21:00.831Z,17
2022-11-27T03:22:00.831Z,18
2022-11-27T03:23:00.856Z,17
2022-11-27T03:24:00.828Z,16
2022-11-27T03:27:00.826Z,15
2022-11-27T03:29:00.852Z,13
2022-11-27T03:30:00.950Z,13
2022-11-27T03:31:00.853Z,12
2022-11-27T03:32:00.826Z,11
2022-11-27T03:34:00.918Z,13
2022-11-27T03:35:00.827Z,16
2022-11-27T03:36:00.828Z,18
2022-11-27T03:37:00.832Z,17
2022-11-27T03:38:00.835Z,19
2022-11-27T03:39:00.855Z,20
2022-11-27T03:40:00.830Z,19
2022-11-27T03:42:00.828Z,21
2022-11-27T03:44:00.920Z,18
2022-11-27T03:45:00.896Z,19
2022-11-27T03:47:06.580Z,18
2022-11-27T03:48:01.028Z,19
2022-11-27T03:50:00.856Z,17
2022-11-27T03:52:00.829Z,18
2022-11-27T03:53:00.832Z,19
2022-11-27T03:54:00.867Z,21
2022-11-27T03:55:00.836Z,22
2022-11-27T03:56:03.245Z,20
2022-11-27T03:57:00.830Z,19
2022-11-27T03:58:00.830Z,18
2022-11-27T03:59:00.867Z,14
2022-11-27T04:00:00.847Z,13
2022-11-27T04:01:00.831Z,15
2022-11-27T04:04:01.114Z,16
2022-11-27T04:06:00.832Z,17
2022-11-27T04:07:00.839Z,18
2022-11-27T04:09:00.873Z,17
2022-11-27T04:10:00.919Z,16
2022-11-27T04:11:00.831Z,14
2022-11-27T04:15:00.926Z,15
2022-11-27T04:19:00.830Z,13
2022-11-27T04:21:00.950Z,14
2022-11-27T04:22:00.832Z,13
2022-11-27T04:23:00.832Z,14
2022-11-27T04:24:00.832Z,16
2022-11-27T04:27:00.835Z,17
2022-11-27T04:28:00.835Z,19
2022-11-27T04:29:00.832Z,20
2022-11-27T04:30:00.860Z,20
2022-11-27T04:31:00.848Z,19
2022-11-27T04:32:00.831Z,18
2022-11-27T04:33:00.836Z,15
2022-11-27T04:34:00.835Z,13
2022-11-27T04:37:00.957Z,16
2022-11-27T04:38:00.836Z,18
2022-11-27T04:39:00.837Z,20
2022-11-27T04:42:00.837Z,19
2022-11-27T04:43:00.837Z,18
2022-11-27T04:44:00.838Z,17
2022-11-27T04:45:00.838Z,17
2022-11-27T04:47:00.921Z,15
2022-11-27T04:49:00.838Z,16
2022-11-27T04:50:00.840Z,15
2022-11-27T04:51:00.841Z,16
2022-11-27T04:52:00.839Z,19
2022-11-27T04:53:00.965Z,18
2022-11-27T04:55:00.838Z,17
2022-11-27T04:56:00.839Z,16
2022-11-27T04:57:00.840Z,13
2022-11-27T04:58:00.840Z,14
2022-11-27T05:00:00.839Z,16
2022-11-27T05:01:00.877Z,18
2022-11-27T05:02:00.841Z,19
2022-11-27T05:03:00.922Z,18
2022-11-27T05:04:00.845Z,19
2022-11-27T05:05:00.845Z,18
2022-11-27T05:06:00.844Z,16
2022-11-27T05:07:00.855Z,15
2022-11-27T05:08:00.910Z,14
2022-11-27T05:10:00.971Z,13
2022-11-27T05:11:00.852Z,12
2022-11-27T05:12:00.850Z,13
2022-11-27T05:13:00.850Z,15
2022-11-27T05:15:04.354Z,16
2022-11-27T05:16:00.922Z,20
2022-11-27T05:17:00.851Z,21
2022-11-27T05:18:00.851Z,20
2022-11-27T05:20:00.852Z,19
2022-11-27T05:21:00.855Z,16
2022-11-27T05:23:00.920Z,15
2022-11-27T05:24:00.851Z,14
2022-11-27T05:27:00.970Z,13
2022-11-27T05:28:01.881Z,17
2022-11-27T05:29:00.856Z,18
2022-11-27T05:30:00.895Z,19
2022-11-27T05:32:00.855Z,17
2022-11-27T05:33:00.855Z,13
2022-11-27T05:34:00.856Z,14
2022-11-27T05:36:00.856Z,16
2022-11-27T05:37:00.856Z,18
2022-11-27T05:38:00.857Z,17
2022-11-27T05:39:00.854Z,16
2022-11-27T05:40:00.850Z,14
2022-11-27T05:41:00.858Z,12
2022-11-27T05:42:00.855Z,13
2022-11-27T05:44:01.049Z,14
2022-11-27T05:45:00.857Z,14
2022-11-27T05:46:00.866Z,16
2022-11-27T05:47:00.889Z,15
2022-11-27T05:48:00.858Z,16
2022-11-27T05:50:00.858Z,17
2022-11-27T05:51:00.860Z,16
2022-11-27T05:52:00.861Z,15
2022-11-27T05:53:00.874Z,14
2022-11-27T05:55:00.859Z,13
2022-11-27T05:56:00.864Z,16
2022-11-27T05:58:00.862Z,15
2022-11-27T06:00:01.015Z,15
2022-11-27T06:01:00.861Z,12
2022-11-27T06:02:00.880Z,13
2022-11-27T06:03:01.013Z,14
2022-11-27T06:04:00.863Z,13
2022-11-27T06:05:00.863Z,17
2022-11-27T06:06:00.867Z,18
2022-11-27T06:07:00.863Z,19
2022-11-27T06:08:00.903Z,18
2022-11-27T06:09:00.862Z,19
2022-11-27T06:10:00.891Z,17
2022-11-27T06:11:00.863Z,16
2022-11-27T06:13:00.922Z,19
2022-11-27T06:14:00.861Z,20
2022-11-27T06:15:00.891Z,20
2022-11-27T06:18:00.987Z,16
2022-11-27T06:19:00.864Z,15
2022-11-27T06:22:00.868Z,14
2022-11-27T06:24:00.867Z,16
2022-11-27T06:25:00.875Z,17
2022-11-27T06:26:00.882Z,19
2022-11-27T06:28:00.867Z,21
2022-11-27T06:29:00.866Z,20
2022-11-27T06:30:00.863Z,20
2022-11-27T06:31:00.867Z,19
2022-11-27T06:32:00.941Z,18
2022-11-27T06:33:00.869Z,15
2022-11-27T06:34:00.993Z,17
2022-11-27T06:35:00.869Z,15
2022-11-27T06:38:00.869Z,18
2022-11-27T06:39:00.870Z,15
2022-11-27T06:40:00.871Z,16
2022-11-27T06:41:00.871Z,17
2022-11-27T06:42:00.872Z,19
2022-11-27T06:43:00.878Z,17
2022-11-27T06:44:00.870Z,19
2022-11-27T06:45:00.870Z,19
2022-11-27T06:46:00.946Z,18
2022-11-27T06:47:00.869Z,17
2022-11-27T06:48:00.866Z,18
2022-11-27T06:49:00.871Z,16
2022-11-27T06:50:01.008Z,17
2022-11-27T06:51:00.932Z,16
2022-11-27T06:52:00.893Z,17
2022-11-27T06:55:00.994Z,16
2022-11-27T06:56:00.867Z,18
2022-11-27T06:58:00.869Z,19
2022-11-27T06:59:00.865Z,17
2022-11-27T07:00:00.872Z,16
2022-11-27T07:01:00.952Z,17
2022-11-27T07:03:00.935Z,16
2022-11-27T07:04:00.867Z,18
2022-11-27T07:05:00.866Z,17
2022-11-27T07:06:00.983Z,16
2022-11-27T07:11:00.873Z,17
2022-11-27T07:13:01.894Z,16
2022-11-27T07:14:00.940Z,15
2022-11-27T07:15:04.153Z,15
2022-11-27T07:16:00.923Z,14
2022-11-27T07:17:00.866Z,13
2022-11-27T07:18:00.867Z,14
2022-11-27T07:21:00.875Z,13
2022-11-27T07:22:01.003Z,15
2022-11-27T07:23:00.880Z,17
2022-11-27T07:24:00.871Z,18
2022-11-27T07:25:00.871Z,20
2022-11-27T07:27:00.871Z,19
2022-11-27T07:28:00.879Z,16
2022-11-27T07:29:00.947Z,15
2022-11-27T07:30:00.954Z,14
2022-11-27T07:33:00.948Z,17
2022-11-27T07:35:00.879Z,18
2022-11-27T07:36:00.875Z,19
2022-11-27T07:37:00.877Z,18
2022-11-27T07:39:00.995Z,17
2022-11-27T07:40:02.789Z,16
2022-11-27T07:41:00.876Z,17
2022-11-27T07:42:16.711Z,16
2022-11-27T07:43:00.858Z,17
2022-11-27T07:45:00.876Z,16
2022-11-27T07:46:00.894Z,15
2022-11-27T07:47:00.880Z,16
2022-11-27T07:48:00.878Z,15
2022-11-27T07:49:00.963Z,16
2022-11-27T07:50:00.879Z,15
2022-11-27T07:51:00.878Z,16
2022-11-27T07:52:00.884Z,17
2022-11-27T07:53:00.876Z,19
2022-11-27T07:54:00.879Z,17
2022-11-27T07:57:01.007Z,16
2022-11-27T07:58:00.881Z,15
2022-11-27T07:59:00.888Z,16
2022-11-27T08:00:00.880Z,18
2022-11-27T08:02:00.885Z,19
2022-11-27T08:03:00.886Z,20
2022-11-27T08:04:00.882Z,21
2022-11-27T08:06:00.883Z,22
2022-11-27T08:07:00.883Z,21
2022-11-27T08:08:00.935Z,20
2022-11-27T08:09:00.879Z,18
2022-11-27T08:10:00.878Z,16
2022-11-27T08:12:00.895Z,17
2022-11-27T08:14:01.096Z,19
2022-11-27T08:15:00.882Z,21
2022-11-27T08:16:00.893Z,20
2022-11-27T08:17:00.885Z,19
2022-11-27T08:18:00.884Z,18
2022-11-27T08:19:00.882Z,16
2022-11-27T08:21:00.977Z,18
2022-11-27T08:22:00.903Z,19
2022-11-27T08:25:01.041Z,18
2022-11-27T08:26:00.885Z,16
2022-11-27T08:27:00.909Z,14
2022-11-27T08:28:00.896Z,16
2022-11-27T08:30:01.013Z,17
2022-11-27T08:31:00.897Z,18
2022-11-27T08:33:01.049Z,17
2022-11-27T08:35:00.889Z,16
2022-11-27T08:37:00.913Z,17
2022-11-27T08:38:00.982Z,16
2022-11-27T08:40:00.968Z,18
2022-11-27T08:41:01.125Z,17
2022-11-27T08:45:00.976Z,15
2022-11-27T08:47:01.027Z,14
2022-11-27T08:48:00.908Z,15
2022-11-27T08:50:00.953Z,16
2022-11-27T08:51:00.904Z,15
2022-11-27T08:52:00.957Z,16
2022-11-27T08:55:00.954Z,17
2022-11-27T08:56:00.912Z,18
2022-11-27T08:58:00.897Z,19
2022-11-27T08:59:00.910Z,18
2022-11-27T09:00:00.909Z,16
2022-11-27T09:03:01.082Z,14
2022-11-27T09:04:00.972Z,16
2022-11-27T09:05:00.934Z,15
2022-11-27T09:07:00.896Z,16
2022-11-27T09:11:00.919Z,17
2022-11-27T09:14:00.981Z,16
2022-11-27T09:15:00.986Z,16
2022-11-27T09:16:00.954Z,17
2022-11-27T09:18:00.919Z,16
2022-11-27T09:19:01.117Z,17
2022-11-27T09:20:00.898Z,16
2022-11-27T09:21:00.899Z,15
2022-11-27T09:22:00.967Z,14
2022-11-27T09:23:00.979Z,15
2022-11-27T09:25:00.901Z,19
2022-11-27T09:26:00.916Z,18
2022-11-27T09:27:00.902Z,17
2022-11-27T09:28:00.918Z,18
2022-11-27T09:29:00.902Z,20
2022-11-27T09:30:00.908Z,17
2022-11-27T09:31:00.924Z,18
2022-11-27T09:32:01.044Z,19
2022-11-27T09:33:00.978Z,17
2022-11-27T09:34:00.987Z,15
2022-11-27T09:36:01.090Z,16
2022-11-27T09:38:00.928Z,18
2022-11-27T09:39:00.929Z,19
2022-11-27T09:41:03.206Z,17
2022-11-27T09:42:00.981Z,16
2022-11-27T09:43:00.975Z,15
2022-11-27T09:45:01.005Z,14
2022-11-27T09:48:00.993Z,13
2022-11-27T09:49:00.915Z,12
2022-11-27T09:51:00.923Z,15
2022-11-27T09:52:01.049Z,16
2022-11-27T09:53:00.987Z,18
2022-11-27T09:54:00.970Z,20
2022-11-27T09:56:00.908Z,18
2022-11-27T09:57:00.994Z,16
2022-11-27T09:58:00.919Z,17
2022-11-27T09:59:00.986Z,15
2022-11-27T10:00:00.964Z,15
2022-11-27T10:01:00.992Z,16
2022-11-27T10:04:00.988Z,18
2022-11-27T10:05:18.138Z,17
2022-11-27T10:06:00.979Z,18
2022-11-27T10:08:06.217Z,16
2022-11-27T10:10:00.948Z,15
2022-11-27T10:13:01.050Z,16
2022-11-27T10:14:00.990Z,15
2022-11-27T10:15:00.932Z,16
2022-11-27T10:16:00.921Z,15
2022-11-27T10:17:01.027Z,16
2022-11-27T10:21:00.973Z,18
2022-11-27T10:24:01.208Z,16
2022-11-27T10:25:01.060Z,17
2022-11-27T10:26:00.935Z,15
2022-11-27T10:29:00.928Z,18
2022-11-27T10:30:00.938Z,18
2022-11-27T10:34:01.064Z,17
2022-11-27T10:36:00.996Z,16
2022-11-27T10:39:00.913Z,15
2022-11-27T10:40:01.034Z,14
2022-11-27T10:44:01.845Z,15
2022-11-27T10:45:00.944Z,17
2022-11-27T10:47:00.934Z,19
2022-11-27T10:49:00.979Z,18
2022-11-27T10:51:00.940Z,19
2022-11-27T10:52:01.012Z,17
2022-11-27T10:53:00.920Z,16
2022-11-27T10:54:01.025Z,17
2022-11-27T10:55:01.040Z,16
2022-11-27T10:58:01.134Z,15
2022-11-27T10:59:00.984Z,16
2022-11-27T11:00:01.091Z,17
2022-11-27T11:01:01.048Z,18
2022-11-27T11:02:00.986Z,19
2022-11-27T11:03:01.009Z,20
2022-11-27T11:04:01.027Z,19
2022-11-27T11:05:24.444Z,18
2022-11-27T11:09:01.502Z,16
2022-11-27T11:10:00.979Z,15
2022-11-27T11:11:01.011Z,13
2022-11-27T11:12:00.938Z,12
2022-11-27T11:13:00.925Z,13
2022-11-27T11:14:01.176Z,15
2022-11-27T11:15:01.123Z,17
2022-11-27T11:17:01.167Z,18
2022-11-27T11:21:01.016Z,19
2022-11-27T11:23:01.184Z,20
2022-11-27T11:25:01.037Z,18
2022-11-27T11:26:01.091Z,17
2022-11-27T11:29:00.945Z,16
2022-11-27T11:30:01.116Z,17
2022-11-27T11:31:01.014Z,18
2022-11-27T11:32:00.992Z,16
2022-11-27T11:33:01.014Z,14
2022-11-27T11:35:01.599Z,15
2022-11-27T11:36:02.021Z,14
2022-11-27T11:37:00.928Z,16
2022-11-27T11:38:00.927Z,18
2022-11-27T11:41:00.930Z,19
2022-11-27T11:42:00.995Z,17
2022-11-27T11:44:01.127Z,16
2022-11-27T11:45:00.933Z,16
2022-11-27T11:46:01.103Z,14
2022-11-27T11:48:00.990Z,15
2022-11-27T11:50:00.932Z,17
2022-11-27T11:51:01.000Z,18
2022-11-27T11:53:01.056Z,17
2022-11-27T11:55:00.927Z,15
2022-11-27T11:57:00.989Z,16
2022-11-27T11:58:00.963Z,15
2022-11-27T12:00:00.919Z,16
2022-11-27T12:02:01.092Z,15
2022-11-27T12:08:01.147Z,14
2022-11-27T12:09:00.921Z,15
2022-11-27T12:11:01.946Z,16
2022-11-27T12:12:00.920Z,14
2022-11-27T12:13:00.920Z,15
2022-11-27T12:14:00.919Z,16
2022-11-27T12:15:00.921Z,16
2022-11-27T12:17:00.930Z,19
2022-11-27T12:19:01.103Z,16
2022-11-27T12:20:00.922Z,17
2022-11-27T12:22:00.921Z,14
2022-11-27T12:23:00.922Z,12
2022-11-27T12:24:00.921Z,13
2022-11-27T12:25:00.930Z,12
2022-11-27T12:26:00.923Z,11
2022-11-27T12:27:00.922Z,13
2022-11-27T12:28:00.973Z,15
2022-11-27T12:30:00.925Z,17
2022-11-27T12:31:00.923Z,19
2022-11-27T12:33:00.985Z,20
2022-11-27T12:34:00.923Z,21
2022-11-27T12:35:01.043Z,19
2022-11-27T12:36:00.944Z,18
2022-11-27T12:38:00.995Z,16
2022-11-27T12:39:00.931Z,17
2022-11-27T12:40:00.924Z,18
2022-11-27T12:44:00.995Z,16
2022-11-27T12:45:00.929Z,16
2022-11-27T12:46:01.016Z,17
2022-11-27T12:51:01.046Z,14
2022-11-27T12:52:00.926Z,15
2022-11-27T12:53:00.923Z,14
2022-11-27T12:55:00.923Z,15
2022-11-27T12:56:00.927Z,17
2022-11-27T12:58:00.926Z,18
2022-11-27T12:59:00.930Z,19
2022-11-27T13:00:00.925Z,18
2022-11-27T13:01:00.989Z,15
2022-11-27T13:03:01.129Z,13
2022-11-27T13:04:00.929Z,12
2022-11-27T13:06:00.934Z,13
2022-11-27T13:08:01.205Z,15
2022-11-27T13:11:00.933Z,16
2022-11-27T13:13:01.089Z,15
2022-11-27T13:14:00.942Z,13
2022-11-27T13:15:00.933Z,14
2022-11-27T13:16:00.992Z,15
2022-11-27T13:17:01.003Z,16
2022-11-27T13:18:00.933Z,17
2022-11-27T13:19:00.934Z,18
2022-11-27T13:21:01.008Z,17
2022-11-27T13:23:01.066Z,16
2022-11-27T13:26:01.160Z,17
2022-11-27T13:27:01.014Z,16
2022-11-27T13:28:00.936Z,19
2022-11-27T13:30:01.031Z,18
2022-11-27T13:31:01.028Z,17
2022-11-27T13:32:01.119Z,16
2022-11-27T13:33:00.939Z,15
2022-11-27T13:34:01.001Z,14
2022-11-27T13:35:01.028Z,16
2022-11-27T13:36:01.059Z,14
2022-11-27T13:37:01.017Z,16
2022-11-27T13:39:00.934Z,18
2022-11-27T13:41:01.004Z,21
2022-11-27T13:42:01.216Z,19
2022-11-27T13:43:01.125Z,20
2022-11-27T13:44:00.938Z,19
2022-11-27T13:45:01.023Z,19
2022-11-27T13:46:01.046Z,18
2022-11-27T13:47:01.038Z,17
2022-11-27T13:48:00.942Z,16
2022-11-27T13:49:01.009Z,15
2022-11-27T13:50:00.940Z,14
2022-11-27T13:51:00.942Z,15
2022-11-27T13:52:00.946Z,17
2022-11-27T13:53:00.941Z,19
2022-11-27T13:54:00.941Z,21
2022-11-27T13:57:00.945Z,19
2022-11-27T13:59:01.064Z,18
2022-11-27T14:00:00.947Z,18
2022-11-27T14:01:00.988Z,19
2022-11-27T14:02:01.035Z,18
2022-11-27T14:04:01.080Z,19
2022-11-27T14:05:00.944Z,17
2022-11-27T14:07:00.945Z,16
2022-11-27T14:08:01.044Z,17
2022-11-27T14:09:00.946Z,13
2022-11-27T14:10:00.944Z,15
2022-11-27T14:13:01.023Z,17
2022-11-27T14:15:01.065Z,15
2022-11-27T14:16:00.991Z,17
2022-11-27T14:17:00.942Z,19
2022-11-27T14:18:00.945Z,17
2022-11-27T14:19:00.944Z,16
2022-11-27T14:20:00.941Z,15
2022-11-27T14:21:00.946Z,14
2022-11-27T14:22:00.949Z,13
2022-11-27T14:23:11.593Z,14
2022-11-27T14:24:00.955Z,15
2022-11-27T14:25:00.961Z,17
2022-11-27T14:26:00.944Z,15
2022-11-27T14:28:00.949Z,13
2022-11-27T14:29:00.948Z,14
2022-11-27T14:30:00.972Z,13
2022-11-27T14:31:01.072Z,14
2022-11-27T14:32:00.999Z,16
2022-11-27T14:33:00.949Z,18
2022-11-27T14:35:00.942Z,20
2022-11-27T14:37:00.950Z,19
2022-11-27T14:38:00.944Z,21
2022-11-27T14:40:00.951Z,19
2022-11-27T14:42:00.950Z,17
2022-11-27T14:43:00.950Z,14
2022-11-27T14:45:00.948Z,13
2022-11-27T14:46:00.951Z,14
2022-11-27T14:47:01.081Z,16
2022-11-27T14:48:00.951Z,17
2022-11-27T14:49:00.952Z,18
2022-11-27T14:50:00.952Z,19
2022-11-27T14:52:00.951Z,20
2022-11-27T14:53:00.951Z,19
2022-11-27T14:54:00.953Z,17
2022-11-27T14:56:00.951Z,16
2022-11-27T14:57:00.955Z,15
2022-11-27T14:58:01.060Z,16
2022-11-27T15:00:00.955Z,16
2022-11-27T15:01:00.954Z,15
2022-11-27T15:03:01.232Z,16
2022-11-27T15:05:00.957Z,15
2022-11-27T15:06:00.981Z,16
2022-11-27T15:07:00.954Z,17
2022-11-27T15:08:01.014Z,16
2022-11-27T15:09:24.032Z,17
2022-11-27T15:10:00.941Z,18
2022-11-27T15:11:00.954Z,17
2022-11-27T15:12:00.956Z,15
2022-11-27T15:13:00.957Z,17
2022-11-27T15:14:00.955Z,16
2022-11-27T15:15:00.956Z,14
2022-11-27T15:16:00.998Z,15
2022-11-27T15:19:01.070Z,16
2022-11-27T15:21:00.957Z,18
2022-11-27T15:22:00.958Z,16
2022-11-27T15:23:00.958Z,17
2022-11-27T15:24:00.960Z,16
2022-11-27T15:25:00.961Z,17
2022-11-27T15:26:00.967Z,16
2022-11-27T15:27:00.962Z,17
2022-11-27T15:28:00.962Z,16
2022-11-27T15:30:01.121Z,15
2022-11-27T15:31:00.971Z,16
2022-11-27T15:32:01.083Z,18
2022-11-27T15:33:00.962Z,17
2022-11-27T15:35:01.079Z,19
2022-11-27T15:36:00.959Z,18
2022-11-27T15:37:00.960Z,15
2022-11-27T15:38:00.962Z,16
2022-11-27T15:39:00.961Z,15
2022-11-27T15:40:00.961Z,13
2022-11-27T15:41:01.011Z,12
2022-11-27T15:42:00.961Z,14
2022-11-27T15:43:01.027Z,15
2022-11-27T15:44:01.025Z,14
2022-11-27T15:45:01.059Z,16
2022-11-27T15:46:00.994Z,17
2022-11-27T15:47:00.967Z,15
2022-11-27T15:49:01.094Z,18
2022-11-27T15:50:01.035Z,16
2022-11-27T15:51:01.150Z,17
2022-11-27T15:52:01.009Z,19
2022-11-27T15:54:01.211Z,16
2022-11-27T15:55:01.080Z,17
2022-11-27T15:57:01.033Z,15
2022-11-27T15:59:00.965Z,14
2022-11-27T16:00:00.967Z,15
2022-11-27T16:02:01.097Z,17
2022-11-27T16:04:01.028Z,19
2022-11-27T16:05:00.969Z,20
2022-11-27T16:06:01.009Z,19
2022-11-27T16:07:01.150Z,18
2022-11-27T16:08:01.091Z,20
2022-11-27T16:09:01.035Z,19
2022-11-27T16:10:01.036Z,17
2022-11-27T16:11:01.037Z,16
2022-11-27T16:12:01.034Z,18
2022-11-27T16:13:00.971Z,16
2022-11-27T16:14:00.971Z,15
2022-11-27T16:15:00.968Z,17
2022-11-27T16:16:01.043Z,18
2022-11-27T16:17:01.042Z,17
2022-11-27T16:19:00.976Z,18
2022-11-27T16:20:00.970Z,16
2022-11-27T16:21:01.000Z,18
2022-11-27T16:22:00.971Z,16
2022-11-27T16:25:01.153Z,17
2022-11-27T16:26:01.004Z,15
2022-11-27T16:27:00.971Z,14
2022-11-27T16:28:02.941Z,15
2022-11-27T16:30:00.973Z,15
2022-11-27T16:31:01.028Z,16
2022-11-27T16:32:01.046Z,19
2022-11-27T16:33:00.974Z,18
2022-11-27T16:35:00.974Z,19
2022-11-27T16:37:01.000Z,18
2022-11-27T16:38:00.992Z,19
2022-11-27T16:41:01.092Z,18
2022-11-27T16:42:00.998Z,16
2022-11-27T16:43:00.976Z,15
2022-11-27T16:44:00.978Z,16
2022-11-27T16:45:00.977Z,15
2022-11-27T16:46:01.027Z,16
2022-11-27T16:49:01.005Z,15
2022-11-27T16:50:00.982Z,16
2022-11-27T16:51:00.977Z,17
2022-11-27T16:55:01.136Z,16
2022-11-27T16:56:00.979Z,17
2022-11-27T16:57:01.095Z,18
2022-11-27T16:59:03.267Z,20
2022-11-27T17:00:00.981Z,21
2022-11-27T17:02:01.067Z,19
2022-11-27T17:05:01.080Z,18
2022-11-27T17:06:00.990Z,15
2022-11-27T17:08:01.071Z,17
2022-11-27T17:09:00.980Z,16
2022-11-27T17:11:04.642Z,18
2022-11-27T17:12:00.980Z,19
2022-11-27T17:13:01.139Z,18
2022-11-27T17:15:00.978Z,17
2022-11-27T17:16:01.033Z,15
2022-11-27T17:18:00.981Z,14
2022-11-27T17:19:00.984Z,13
2022-11-27T17:22:01.013Z,14
2022-11-27T17:23:01.000Z,15
2022-11-27T17:24:00.979Z,16
2022-11-27T17:27:00.981Z,14
2022-11-27T17:28:00.979Z,13
2022-11-27T17:29:01.125Z,14
2022-11-27T17:30:00.981Z,14
2022-11-27T17:31:01.006Z,17
2022-11-27T17:32:01.061Z,18
2022-11-27T17:33:00.980Z,19
2022-11-27T17:34:00.983Z,18
2022-11-27T17:36:01.010Z,17
2022-11-27T17:37:00.981Z,16
2022-11-27T17:39:00.983Z,18
2022-11-27T17:42:01.014Z,20
2022-11-27T17:43:00.982Z,19
2022-11-27T17:44:00.980Z,17
2022-11-27T17:45:01.108Z,19
2022-11-27T17:46:01.059Z,20
2022-11-27T17:47:00.980Z,18
2022-11-27T17:48:00.984Z,19
2022-11-27T17:50:00.984Z,17
2022-11-27T17:51:01.021Z,16
2022-11-27T17:52:06.076Z,17
2022-11-27T17:54:01.112Z,18
2022-11-27T18:00:00.986Z,18
2022-11-27T18:01:01.232Z,19
2022-11-27T18:03:04.702Z,21
2022-11-27T18:04:01.163Z,19
2022-11-27T18:05:00.988Z,20
2022-11-27T18:06:00.986Z,18
2022-11-27T18:07:00.987Z,16
2022-11-27T18:08:01.112Z,15
2022-11-27T18:10:00.986Z,16
2022-11-27T18:13:01.090Z,14
2022-11-27T18:14:00.989Z,16
2022-11-27T18:15:01.634Z,15
2022-11-27T18:16:01.021Z,13
2022-11-27T18:17:01.144Z,14
2022-11-27T18:18:01.036Z,15
2022-11-27T18:20:00.983Z,13
2022-11-27T18:21:01.046Z,15
2022-11-27T18:22:00.984Z,14
2022-11-27T18:23:01.022Z,16
2022-11-27T18:24:22.333Z,15
2022-11-27T18:25:01.046Z,17
2022-11-27T18:27:09.068Z,18
2022-11-27T18:29:01.271Z,17
2022-11-27T18:30:01.061Z,18
2022-11-27T18:31:01.053Z,17
2022-11-27T18:32:01.150Z,20
2022-11-27T18:35:01.375Z,19
2022-11-27T18:36:01.051Z,20
2022-11-27T18:37:01.019Z,18
2022-11-27T18:39:01.052Z,19
2022-11-27T18:40:01.169Z,20
2022-11-27T18:41:00.987Z,19
2022-11-27T18:42:00.987Z,21
2022-11-27T18:43:00.987Z,20
2022-11-27T18:45:00.986Z,19
2022-11-27T18:46:01.006Z,20
2022-11-27T18:47:00.988Z,19
2022-11-27T18:48:00.986Z,20
2022-11-27T18:50:01.076Z,19
2022-11-27T18:51:01.125Z,18
2022-11-27T18:52:00.984Z,17
2022-11-27T18:53:00.987Z,15
2022-11-27T18:55:00.988Z,16
2022-11-27T18:56:01.057Z,15
2022-11-27T18:57:00.990Z,17
2022-11-27T18:58:00.990Z,19
2022-11-27T18:59:00.996Z,18
2022-11-27T19:00:00.990Z,17
2022-11-27T19:01:01.058Z,18
2022-11-27T19:02:01.117Z,16
2022-11-27T19:04:01.055Z,15
2022-11-27T19:06:00.989Z,14
2022-11-27T19:07:01.106Z,15
2022-11-27T19:11:00.990Z,17
2022-11-27T19:12:00.990Z,16
2022-11-27T19:13:00.991Z,15
2022-11-27T19:14:01.001Z,14
2022-11-27T19:15:00.992Z,17
2022-11-27T19:16:01.049Z,15
2022-11-27T19:18:00.992Z,14
2022-11-27T19:19:02.024Z,16
2022-11-27T19:20:00.995Z,14
2022-11-27T19:21:01.003Z,16
2022-11-27T19:22:00.990Z,15
2022-11-27T19:23:01.111Z,18
2022-11-27T19:25:01.022Z,19
2022-11-27T19:26:02.022Z,16
2022-11-27T19:27:00.992Z,17
2022-11-27T19:28:00.992Z,16
2022-11-27T19:29:00.993Z,15
2022-11-27T19:30:02.020Z,14
2022-11-27T19:31:01.057Z,15
2022-11-27T19:32:01.149Z,16
2022-11-27T19:33:00.994Z,14
2022-11-27T19:34:00.995Z,17
2022-11-27T19:35:05.777Z,16
2022-11-27T19:37:00.997Z,15
2022-11-27T19:38:01.001Z,17
2022-11-27T19:39:01.105Z,16
2022-11-27T19:40:01.030Z,15
2022-11-27T19:41:01.060Z,16
2022-11-27T19:43:01.493Z,14
2022-11-27T19:44:00.994Z,15
2022-11-27T19:45:00.988Z,14
2022-11-27T19:47:00.998Z,13
2022-11-27T19:48:00.992Z,14